sensor_id;sensor_type;location;lat;lon;timestamp;P1;durP1;ratioP1;P2;durP2;ratioP2
50773;SDS011;36745;48.544;8.918;2023-03-19T00:01:42;16.50;;;7.28;;
50773;SDS011;36745;48.544;8.918;2023-03-19T00:05:02;14.65;;;7.35;;
50773;SDS011;36745;48.544;8.918;2023-03-19T00:08:23;16.08;;;7.45;;
50773;SDS011;36745;48.544;8.918;2023-03-19T00:11:43;11.57;;;6.25;;
50773;SDS011;36745;48.544;8.918;2023-03-19T00:15:03;12.50;;;6.18;;
50773;SDS011;36745;48.544;8.918;2023-03-19T00:18:22;13.73;;;7.65;;
50773;SDS011;36745;48.544;8.918;2023-03-19T00:21:42;14.30;;;7.72;;
50773;SDS011;36745;48.544;8.918;2023-03-19T00:25:02;15.20;;;7.43;;
50773;SDS011;36745;48.544;8.918;2023-03-19T00:28:22;13.82;;;7.82;;
50773;SDS011;36745;48.544;8.918;2023-03-19T00:31:41;16.27;;;7.32;;
50773;SDS011;36745;48.544;8.918;2023-03-19T00:35:02;14.02;;;7.78;;
50773;SDS011;36745;48.544;8.918;2023-03-19T00:38:24;11.45;;;6.55;;
50773;SDS011;36745;48.544;8.918;2023-03-19T00:41:44;13.93;;;7.05;;
50773;SDS011;36745;48.544;8.918;2023-03-19T00:45:08;12.00;;;7.20;;
50773;SDS011;36745;48.544;8.918;2023-03-19T00:48:29;13.23;;;7.97;;
50773;SDS011;36745;48.544;8.918;2023-03-19T00:51:49;12.77;;;7.60;;
50773;SDS011;36745;48.544;8.918;2023-03-19T00:55:09;11.18;;;7.20;;
50773;SDS011;36745;48.544;8.918;2023-03-19T00:58:29;9.63;;;6.60;;
50773;SDS011;36745;48.544;8.918;2023-03-19T01:01:49;13.75;;;7.05;;
50773;SDS011;36745;48.544;8.918;2023-03-19T01:05:09;9.10;;;6.60;;
50773;SDS011;36745;48.544;8.918;2023-03-19T01:08:29;11.60;;;6.60;;
50773;SDS011;36745;48.544;8.918;2023-03-19T01:11:48;10.63;;;5.88;;
50773;SDS011;36745;48.544;8.918;2023-03-19T01:15:08;8.95;;;4.63;;
50773;SDS011;36745;48.544;8.918;2023-03-19T01:18:29;7.72;;;4.70;;
50773;SDS011;36745;48.544;8.918;2023-03-19T01:21:49;9.60;;;4.78;;
50773;SDS011;36745;48.544;8.918;2023-03-19T01:25:10;5.60;;;4.43;;
50773;SDS011;36745;48.544;8.918;2023-03-19T01:28:31;9.32;;;4.97;;
50773;SDS011;36745;48.544;8.918;2023-03-19T01:31:51;11.05;;;5.25;;
50773;SDS011;36745;48.544;8.918;2023-03-19T01:35:11;9.95;;;5.60;;
50773;SDS011;36745;48.544;8.918;2023-03-19T01:38:31;10.25;;;5.28;;
50773;SDS011;36745;48.544;8.918;2023-03-19T01:41:50;10.93;;;5.60;;
50773;SDS011;36745;48.544;8.918;2023-03-19T01:49:09;10.10;;;5.72;;
50773;SDS011;36745;48.544;8.918;2023-03-19T01:52:32;12.85;;;6.75;;
50773;SDS011;36745;48.544;8.918;2023-03-19T01:55:54;10.65;;;5.70;;
50773;SDS011;36745;48.544;8.918;2023-03-19T01:59:22;8.43;;;5.78;;
50773;SDS011;36745;48.544;8.918;2023-03-19T02:02:46;11.77;;;6.43;;
50773;SDS011;36745;48.544;8.918;2023-03-19T02:06:08;8.50;;;5.80;;
50773;SDS011;36745;48.544;8.918;2023-03-19T02:09:30;9.48;;;5.35;;
50773;SDS011;36745;48.544;8.918;2023-03-19T02:12:50;11.68;;;6.65;;
50773;SDS011;36745;48.544;8.918;2023-03-19T02:16:10;8.43;;;6.15;;
50773;SDS011;36745;48.544;8.918;2023-03-19T02:19:32;11.27;;;5.80;;
50773;SDS011;36745;48.544;8.918;2023-03-19T02:23:01;8.02;;;5.72;;
50773;SDS011;36745;48.544;8.918;2023-03-19T02:26:32;9.15;;;5.35;;
50773;SDS011;36745;48.544;8.918;2023-03-19T02:29:53;6.95;;;5.60;;
50773;SDS011;36745;48.544;8.918;2023-03-19T02:33:13;11.27;;;5.43;;
50773;SDS011;36745;48.544;8.918;2023-03-19T02:36:37;11.27;;;5.40;;
50773;SDS011;36745;48.544;8.918;2023-03-19T02:40:04;8.73;;;5.65;;
50773;SDS011;36745;48.544;8.918;2023-03-19T02:43:27;8.38;;;5.85;;
50773;SDS011;36745;48.544;8.918;2023-03-19T02:46:47;8.63;;;5.78;;
50773;SDS011;36745;48.544;8.918;2023-03-19T02:50:07;9.88;;;6.32;;
50773;SDS011;36745;48.544;8.918;2023-03-19T02:53:28;10.98;;;5.70;;
50773;SDS011;36745;48.544;8.918;2023-03-19T02:56:48;9.90;;;6.40;;
50773;SDS011;36745;48.544;8.918;2023-03-19T03:00:08;11.85;;;6.10;;
50773;SDS011;36745;48.544;8.918;2023-03-19T03:03:29;8.85;;;6.00;;
50773;SDS011;36745;48.544;8.918;2023-03-19T03:06:49;8.15;;;6.00;;
50773;SDS011;36745;48.544;8.918;2023-03-19T03:10:09;8.48;;;5.90;;
50773;SDS011;36745;48.544;8.918;2023-03-19T03:13:29;11.40;;;6.18;;
50773;SDS011;36745;48.544;8.918;2023-03-19T03:16:49;9.50;;;6.35;;
50773;SDS011;36745;48.544;8.918;2023-03-19T03:20:10;10.65;;;6.50;;
50773;SDS011;36745;48.544;8.918;2023-03-19T03:23:31;9.52;;;6.22;;
50773;SDS011;36745;48.544;8.918;2023-03-19T03:26:51;9.35;;;6.55;;
50773;SDS011;36745;48.544;8.918;2023-03-19T03:30:10;11.77;;;7.32;;
50773;SDS011;36745;48.544;8.918;2023-03-19T03:33:31;8.43;;;6.30;;
50773;SDS011;36745;48.544;8.918;2023-03-19T03:36:51;7.70;;;6.20;;
50773;SDS011;36745;48.544;8.918;2023-03-19T03:40:11;7.82;;;5.95;;
50773;SDS011;36745;48.544;8.918;2023-03-19T03:43:32;12.73;;;7.00;;
50773;SDS011;36745;48.544;8.918;2023-03-19T03:46:52;13.38;;;7.18;;
50773;SDS011;36745;48.544;8.918;2023-03-19T03:50:12;8.90;;;7.00;;
50773;SDS011;36745;48.544;8.918;2023-03-19T03:53:32;11.85;;;7.00;;
50773;SDS011;36745;48.544;8.918;2023-03-19T03:56:52;11.25;;;7.15;;
50773;SDS011;36745;48.544;8.918;2023-03-19T04:00:12;14.60;;;7.40;;
50773;SDS011;36745;48.544;8.918;2023-03-19T04:03:32;13.07;;;7.35;;
50773;SDS011;36745;48.544;8.918;2023-03-19T04:06:52;8.10;;;6.60;;
50773;SDS011;36745;48.544;8.918;2023-03-19T04:10:12;11.57;;;6.78;;
50773;SDS011;36745;48.544;8.918;2023-03-19T04:13:32;12.57;;;7.60;;
50773;SDS011;36745;48.544;8.918;2023-03-19T04:16:54;11.27;;;7.32;;
50773;SDS011;36745;48.544;8.918;2023-03-19T04:20:14;8.90;;;7.40;;
50773;SDS011;36745;48.544;8.918;2023-03-19T04:23:37;13.65;;;7.68;;
50773;SDS011;36745;48.544;8.918;2023-03-19T04:26:56;13.07;;;7.53;;
50773;SDS011;36745;48.544;8.918;2023-03-19T04:30:16;8.75;;;7.47;;
50773;SDS011;36745;48.544;8.918;2023-03-19T04:33:37;9.55;;;7.45;;
50773;SDS011;36745;48.544;8.918;2023-03-19T04:36:57;14.50;;;7.28;;
50773;SDS011;36745;48.544;8.918;2023-03-19T04:40:17;9.38;;;7.70;;
50773;SDS011;36745;48.544;8.918;2023-03-19T04:43:37;11.13;;;8.02;;
50773;SDS011;36745;48.544;8.918;2023-03-19T04:46:56;11.52;;;8.07;;
50773;SDS011;36745;48.544;8.918;2023-03-19T04:50:16;11.38;;;8.13;;
50773;SDS011;36745;48.544;8.918;2023-03-19T04:53:37;10.15;;;7.57;;
50773;SDS011;36745;48.544;8.918;2023-03-19T04:56:58;14.20;;;8.02;;
50773;SDS011;36745;48.544;8.918;2023-03-19T05:00:17;10.13;;;7.78;;
50773;SDS011;36745;48.544;8.918;2023-03-19T05:03:38;11.18;;;8.32;;
50773;SDS011;36745;48.544;8.918;2023-03-19T05:06:58;13.27;;;8.77;;
50773;SDS011;36745;48.544;8.918;2023-03-19T05:10:19;12.68;;;9.00;;
50773;SDS011;36745;48.544;8.918;2023-03-19T05:13:39;14.38;;;10.07;;
50773;SDS011;36745;48.544;8.918;2023-03-19T05:16:59;16.38;;;10.07;;
50773;SDS011;36745;48.544;8.918;2023-03-19T05:20:19;10.57;;;8.35;;
50773;SDS011;36745;48.544;8.918;2023-03-19T05:23:38;12.90;;;9.00;;
50773;SDS011;36745;48.544;8.918;2023-03-19T05:26:58;11.63;;;8.35;;
50773;SDS011;36745;48.544;8.918;2023-03-19T05:30:18;10.40;;;8.57;;
50773;SDS011;36745;48.544;8.918;2023-03-19T05:33:38;14.48;;;9.88;;
50773;SDS011;36745;48.544;8.918;2023-03-19T05:36:58;14.07;;;8.52;;
50773;SDS011;36745;48.544;8.918;2023-03-19T05:40:18;13.50;;;8.50;;
50773;SDS011;36745;48.544;8.918;2023-03-19T05:43:37;9.63;;;8.10;;
50773;SDS011;36745;48.544;8.918;2023-03-19T05:46:57;11.95;;;8.85;;
50773;SDS011;36745;48.544;8.918;2023-03-19T05:50:17;10.68;;;8.13;;
50773;SDS011;36745;48.544;8.918;2023-03-19T05:53:37;11.07;;;7.80;;
50773;SDS011;36745;48.544;8.918;2023-03-19T05:56:57;9.98;;;8.30;;
50773;SDS011;36745;48.544;8.918;2023-03-19T06:00:17;13.05;;;9.52;;
50773;SDS011;36745;48.544;8.918;2023-03-19T06:03:37;12.00;;;9.00;;
50773;SDS011;36745;48.544;8.918;2023-03-19T06:06:57;14.27;;;11.98;;
50773;SDS011;36745;48.544;8.918;2023-03-19T06:10:17;17.00;;;11.10;;
50773;SDS011;36745;48.544;8.918;2023-03-19T06:13:49;27.13;;;16.23;;
50773;SDS011;36745;48.544;8.918;2023-03-19T06:17:12;13.30;;;9.60;;
50773;SDS011;36745;48.544;8.918;2023-03-19T06:20:32;15.95;;;9.50;;
50773;SDS011;36745;48.544;8.918;2023-03-19T06:23:51;20.52;;;14.70;;
50773;SDS011;36745;48.544;8.918;2023-03-19T06:27:11;17.65;;;14.05;;
50773;SDS011;36745;48.544;8.918;2023-03-19T06:30:31;14.93;;;10.45;;
50773;SDS011;36745;48.544;8.918;2023-03-19T06:33:55;14.93;;;11.57;;
50773;SDS011;36745;48.544;8.918;2023-03-19T06:37:16;19.92;;;13.18;;
50773;SDS011;36745;48.544;8.918;2023-03-19T06:40:38;17.00;;;11.33;;
50773;SDS011;36745;48.544;8.918;2023-03-19T06:43:58;16.52;;;10.05;;
50773;SDS011;36745;48.544;8.918;2023-03-19T06:47:18;13.98;;;10.82;;
50773;SDS011;36745;48.544;8.918;2023-03-19T06:50:38;13.75;;;10.52;;
50773;SDS011;36745;48.544;8.918;2023-03-19T06:53:58;11.90;;;9.18;;
50773;SDS011;36745;48.544;8.918;2023-03-19T06:57:17;13.23;;;9.32;;
50773;SDS011;36745;48.544;8.918;2023-03-19T07:00:40;10.75;;;9.20;;
50773;SDS011;36745;48.544;8.918;2023-03-19T07:04:01;13.80;;;10.27;;
50773;SDS011;36745;48.544;8.918;2023-03-19T07:07:20;15.18;;;11.55;;
50773;SDS011;36745;48.544;8.918;2023-03-19T07:10:40;12.45;;;11.05;;
50773;SDS011;36745;48.544;8.918;2023-03-19T07:14:00;12.30;;;9.40;;
50773;SDS011;36745;48.544;8.918;2023-03-19T07:17:20;15.35;;;9.63;;
50773;SDS011;36745;48.544;8.918;2023-03-19T07:20:40;11.77;;;9.77;;
50773;SDS011;36745;48.544;8.918;2023-03-19T07:24:00;13.02;;;9.45;;
50773;SDS011;36745;48.544;8.918;2023-03-19T07:27:20;13.00;;;9.93;;
50773;SDS011;36745;48.544;8.918;2023-03-19T07:30:40;12.10;;;9.73;;
50773;SDS011;36745;48.544;8.918;2023-03-19T07:33:59;16.17;;;9.98;;
50773;SDS011;36745;48.544;8.918;2023-03-19T07:37:19;12.15;;;9.43;;
50773;SDS011;36745;48.544;8.918;2023-03-19T07:40:39;13.93;;;10.13;;
50773;SDS011;36745;48.544;8.918;2023-03-19T07:43:59;15.73;;;9.27;;
50773;SDS011;36745;48.544;8.918;2023-03-19T07:47:19;13.27;;;9.02;;
50773;SDS011;36745;48.544;8.918;2023-03-19T07:50:39;11.65;;;9.40;;
50773;SDS011;36745;48.544;8.918;2023-03-19T07:53:59;10.45;;;8.90;;
50773;SDS011;36745;48.544;8.918;2023-03-19T07:57:19;11.20;;;8.27;;
50773;SDS011;36745;48.544;8.918;2023-03-19T08:00:39;10.77;;;8.40;;
50773;SDS011;36745;48.544;8.918;2023-03-19T08:03:59;11.75;;;7.90;;
50773;SDS011;36745;48.544;8.918;2023-03-19T08:07:19;12.13;;;8.05;;
50773;SDS011;36745;48.544;8.918;2023-03-19T08:10:39;14.57;;;8.25;;
50773;SDS011;36745;48.544;8.918;2023-03-19T08:13:59;12.45;;;9.02;;
50773;SDS011;36745;48.544;8.918;2023-03-19T08:17:19;11.90;;;9.43;;
50773;SDS011;36745;48.544;8.918;2023-03-19T08:20:39;15.43;;;10.93;;
50773;SDS011;36745;48.544;8.918;2023-03-19T08:23:59;15.13;;;10.13;;
50773;SDS011;36745;48.544;8.918;2023-03-19T08:27:19;13.05;;;9.10;;
50773;SDS011;36745;48.544;8.918;2023-03-19T08:30:38;12.05;;;8.23;;
50773;SDS011;36745;48.544;8.918;2023-03-19T08:33:58;14.10;;;7.00;;
50773;SDS011;36745;48.544;8.918;2023-03-19T08:37:21;12.48;;;7.20;;
50773;SDS011;36745;48.544;8.918;2023-03-19T08:40:41;8.40;;;6.53;;
50773;SDS011;36745;48.544;8.918;2023-03-19T08:44:00;7.70;;;6.07;;
50773;SDS011;36745;48.544;8.918;2023-03-19T08:47:20;9.95;;;5.57;;
50773;SDS011;36745;48.544;8.918;2023-03-19T08:50:42;11.60;;;6.82;;
50773;SDS011;36745;48.544;8.918;2023-03-19T08:54:02;8.65;;;6.13;;
50773;SDS011;36745;48.544;8.918;2023-03-19T08:57:22;7.82;;;6.07;;
50773;SDS011;36745;48.544;8.918;2023-03-19T09:00:42;10.25;;;5.50;;
50773;SDS011;36745;48.544;8.918;2023-03-19T09:04:02;7.72;;;5.78;;
50773;SDS011;36745;48.544;8.918;2023-03-19T09:07:22;11.38;;;5.75;;
50773;SDS011;36745;48.544;8.918;2023-03-19T09:10:42;12.73;;;7.03;;
50773;SDS011;36745;48.544;8.918;2023-03-19T09:14:02;10.75;;;5.82;;
50773;SDS011;36745;48.544;8.918;2023-03-19T09:17:22;8.55;;;5.13;;
50773;SDS011;36745;48.544;8.918;2023-03-19T09:20:41;9.93;;;6.22;;
50773;SDS011;36745;48.544;8.918;2023-03-19T09:24:02;7.82;;;5.70;;
50773;SDS011;36745;48.544;8.918;2023-03-19T09:27:22;8.77;;;5.00;;
50773;SDS011;36745;48.544;8.918;2023-03-19T09:30:44;6.43;;;4.32;;
50773;SDS011;36745;48.544;8.918;2023-03-19T09:34:05;10.68;;;4.68;;
50773;SDS011;36745;48.544;8.918;2023-03-19T09:37:25;6.85;;;4.00;;
50773;SDS011;36745;48.544;8.918;2023-03-19T09:40:52;5.72;;;4.38;;
50773;SDS011;36745;48.544;8.918;2023-03-19T09:44:37;6.10;;;4.20;;
50773;SDS011;36745;48.544;8.918;2023-03-19T09:48:04;11.98;;;3.75;;
50773;SDS011;36745;48.544;8.918;2023-03-19T09:51:39;7.25;;;2.60;;
50773;SDS011;36745;48.544;8.918;2023-03-19T09:58:44;5.82;;;2.60;;
50773;SDS011;36745;48.544;8.918;2023-03-19T10:10:02;8.23;;;2.42;;
50773;SDS011;36745;48.544;8.918;2023-03-19T10:13:46;6.68;;;2.22;;
50773;SDS011;36745;48.544;8.918;2023-03-19T10:17:18;2.60;;;1.88;;
50773;SDS011;36745;48.544;8.918;2023-03-19T10:20:44;6.78;;;2.92;;
50773;SDS011;36745;48.544;8.918;2023-03-19T10:24:23;4.00;;;2.35;;
50773;SDS011;36745;48.544;8.918;2023-03-19T10:27:53;3.60;;;2.10;;
50773;SDS011;36745;48.544;8.918;2023-03-19T10:31:25;6.45;;;2.55;;
50773;SDS011;36745;48.544;8.918;2023-03-19T10:35:17;3.47;;;1.90;;
50773;SDS011;36745;48.544;8.918;2023-03-19T10:38:41;5.97;;;2.22;;
50773;SDS011;36745;48.544;8.918;2023-03-19T10:46:01;5.22;;;2.22;;
50773;SDS011;36745;48.544;8.918;2023-03-19T10:49:20;5.00;;;2.17;;
50773;SDS011;36745;48.544;8.918;2023-03-19T10:52:40;4.70;;;2.30;;
50773;SDS011;36745;48.544;8.918;2023-03-19T10:56:05;8.23;;;2.10;;
50773;SDS011;36745;48.544;8.918;2023-03-19T10:59:47;4.45;;;2.40;;
50773;SDS011;36745;48.544;8.918;2023-03-19T11:03:25;3.78;;;2.17;;
50773;SDS011;36745;48.544;8.918;2023-03-19T11:06:52;5.50;;;2.25;;
50773;SDS011;36745;48.544;8.918;2023-03-19T11:10:14;5.18;;;2.28;;
50773;SDS011;36745;48.544;8.918;2023-03-19T11:13:35;2.83;;;2.10;;
50773;SDS011;36745;48.544;8.918;2023-03-19T11:23:46;8.20;;;2.20;;
50773;SDS011;36745;48.544;8.918;2023-03-19T11:27:11;6.82;;;2.92;;
50773;SDS011;36745;48.544;8.918;2023-03-19T11:30:32;7.55;;;2.35;;
50773;SDS011;36745;48.544;8.918;2023-03-19T11:41:22;3.72;;;2.30;;
50773;SDS011;36745;48.544;8.918;2023-03-19T11:48:27;5.72;;;2.03;;
50773;SDS011;36745;48.544;8.918;2023-03-19T11:55:45;4.97;;;2.53;;
50773;SDS011;36745;48.544;8.918;2023-03-19T12:03:17;4.55;;;2.40;;
50773;SDS011;36745;48.544;8.918;2023-03-19T12:10:39;6.80;;;2.58;;
50773;SDS011;36745;48.544;8.918;2023-03-19T12:18:13;5.38;;;3.83;;
50773;SDS011;36745;48.544;8.918;2023-03-19T12:32:48;4.47;;;2.20;;
50773;SDS011;36745;48.544;8.918;2023-03-19T12:36:47;7.22;;;2.08;;
50773;SDS011;36745;48.544;8.918;2023-03-19T12:47:30;5.95;;;2.10;;
50773;SDS011;36745;48.544;8.918;2023-03-19T12:51:02;4.50;;;1.90;;
50773;SDS011;36745;48.544;8.918;2023-03-19T12:54:50;4.40;;;1.90;;
50773;SDS011;36745;48.544;8.918;2023-03-19T12:58:42;3.78;;;1.65;;
50773;SDS011;36745;48.544;8.918;2023-03-19T13:13:48;5.03;;;2.00;;
50773;SDS011;36745;48.544;8.918;2023-03-19T13:17:22;3.55;;;1.60;;
50773;SDS011;36745;48.544;8.918;2023-03-19T13:27:51;3.03;;;1.95;;
50773;SDS011;36745;48.544;8.918;2023-03-19T13:31:25;5.85;;;1.77;;
50773;SDS011;36745;48.544;8.918;2023-03-19T13:34:46;2.65;;;1.70;;
50773;SDS011;36745;48.544;8.918;2023-03-19T13:45:41;3.88;;;1.60;;
50773;SDS011;36745;48.544;8.918;2023-03-19T13:48:52;4.00;;;1.52;;
50773;SDS011;36745;48.544;8.918;2023-03-19T13:55:43;2.92;;;1.50;;
50773;SDS011;36745;48.544;8.918;2023-03-19T13:59:24;1.52;;;1.02;;
50773;SDS011;36745;48.544;8.918;2023-03-19T14:02:46;3.58;;;1.05;;
50773;SDS011;36745;48.544;8.918;2023-03-19T14:06:28;2.28;;;0.95;;
50773;SDS011;36745;48.544;8.918;2023-03-19T14:10:06;2.55;;;0.80;;
50773;SDS011;36745;48.544;8.918;2023-03-19T14:13:41;1.20;;;0.85;;
50773;SDS011;36745;48.544;8.918;2023-03-19T14:17:11;1.65;;;0.77;;
50773;SDS011;36745;48.544;8.918;2023-03-19T14:20:34;1.42;;;0.85;;
50773;SDS011;36745;48.544;8.918;2023-03-19T14:24:24;1.65;;;0.80;;
50773;SDS011;36745;48.544;8.918;2023-03-19T14:27:48;1.60;;;0.60;;
50773;SDS011;36745;48.544;8.918;2023-03-19T14:31:20;1.13;;;0.80;;
50773;SDS011;36745;48.544;8.918;2023-03-19T14:34:44;1.50;;;0.93;;
50773;SDS011;36745;48.544;8.918;2023-03-19T14:38:10;1.42;;;0.80;;
50773;SDS011;36745;48.544;8.918;2023-03-19T14:41:36;2.28;;;1.00;;
50773;SDS011;36745;48.544;8.918;2023-03-19T14:52:13;1.00;;;0.90;;
50773;SDS011;36745;48.544;8.918;2023-03-19T14:55:39;2.35;;;0.90;;
50773;SDS011;36745;48.544;8.918;2023-03-19T14:59:00;2.30;;;1.75;;
50773;SDS011;36745;48.544;8.918;2023-03-19T15:02:35;1.67;;;0.90;;
50773;SDS011;36745;48.544;8.918;2023-03-19T15:05:59;2.20;;;1.42;;
50773;SDS011;36745;48.544;8.918;2023-03-19T15:09:24;0.98;;;0.65;;
50773;SDS011;36745;48.544;8.918;2023-03-19T15:13:02;1.58;;;0.90;;
50773;SDS011;36745;48.544;8.918;2023-03-19T15:20:03;0.95;;;0.90;;
50773;SDS011;36745;48.544;8.918;2023-03-19T15:23:35;1.88;;;0.90;;
50773;SDS011;36745;48.544;8.918;2023-03-19T15:26:57;1.77;;;0.90;;
50773;SDS011;36745;48.544;8.918;2023-03-19T15:30:18;0.90;;;0.90;;
50773;SDS011;36745;48.544;8.918;2023-03-19T15:33:40;1.43;;;0.90;;
50773;SDS011;36745;48.544;8.918;2023-03-19T15:37:02;1.33;;;1.00;;
50773;SDS011;36745;48.544;8.918;2023-03-19T15:40:27;3.25;;;0.98;;
50773;SDS011;36745;48.544;8.918;2023-03-19T15:43:49;3.85;;;0.95;;
50773;SDS011;36745;48.544;8.918;2023-03-19T15:47:10;2.70;;;1.05;;
50773;SDS011;36745;48.544;8.918;2023-03-19T15:50:36;0.95;;;0.90;;
50773;SDS011;36745;48.544;8.918;2023-03-19T15:54:02;1.15;;;1.05;;
50773;SDS011;36745;48.544;8.918;2023-03-19T15:57:23;1.67;;;0.88;;
50773;SDS011;36745;48.544;8.918;2023-03-19T16:00:43;2.03;;;1.00;;
50773;SDS011;36745;48.544;8.918;2023-03-19T16:04:07;1.67;;;0.80;;
50773;SDS011;36745;48.544;8.918;2023-03-19T16:07:38;2.67;;;0.75;;
50773;SDS011;36745;48.544;8.918;2023-03-19T16:11:11;1.35;;;0.80;;
50773;SDS011;36745;48.544;8.918;2023-03-19T16:14:38;2.55;;;1.00;;
50773;SDS011;36745;48.544;8.918;2023-03-19T16:21:41;2.38;;;0.88;;
50773;SDS011;36745;48.544;8.918;2023-03-19T16:25:02;1.15;;;0.73;;
50773;SDS011;36745;48.544;8.918;2023-03-19T16:28:25;4.65;;;0.98;;
50773;SDS011;36745;48.544;8.918;2023-03-19T16:31:49;1.50;;;0.80;;
50773;SDS011;36745;48.544;8.918;2023-03-19T16:35:11;3.45;;;1.20;;
50773;SDS011;36745;48.544;8.918;2023-03-19T16:38:40;3.22;;;1.42;;
50773;SDS011;36745;48.544;8.918;2023-03-19T16:45:32;2.60;;;1.15;;
50773;SDS011;36745;48.544;8.918;2023-03-19T16:48:53;5.68;;;1.73;;
50773;SDS011;36745;48.544;8.918;2023-03-19T16:52:17;4.53;;;1.42;;
50773;SDS011;36745;48.544;8.918;2023-03-19T16:55:41;2.53;;;1.45;;
50773;SDS011;36745;48.544;8.918;2023-03-19T16:59:00;1.75;;;1.52;;
50773;SDS011;36745;48.544;8.918;2023-03-19T17:02:21;4.30;;;1.50;;
50773;SDS011;36745;48.544;8.918;2023-03-19T17:05:41;3.95;;;1.30;;
50773;SDS011;36745;48.544;8.918;2023-03-19T17:09:03;4.38;;;1.58;;
50773;SDS011;36745;48.544;8.918;2023-03-19T17:12:23;2.92;;;1.52;;
50773;SDS011;36745;48.544;8.918;2023-03-19T17:15:43;2.05;;;1.73;;
50773;SDS011;36745;48.544;8.918;2023-03-19T17:19:05;5.32;;;3.25;;
50773;SDS011;36745;48.544;8.918;2023-03-19T17:22:33;4.43;;;2.78;;
50773;SDS011;36745;48.544;8.918;2023-03-19T17:25:53;3.60;;;2.53;;
50773;SDS011;36745;48.544;8.918;2023-03-19T17:29:13;6.63;;;2.97;;
50773;SDS011;36745;48.544;8.918;2023-03-19T17:32:32;3.78;;;2.28;;
50773;SDS011;36745;48.544;8.918;2023-03-19T17:35:53;3.70;;;2.42;;
50773;SDS011;36745;48.544;8.918;2023-03-19T17:39:14;3.17;;;2.30;;
50773;SDS011;36745;48.544;8.918;2023-03-19T17:42:34;4.95;;;2.33;;
50773;SDS011;36745;48.544;8.918;2023-03-19T17:45:54;4.07;;;2.15;;
50773;SDS011;36745;48.544;8.918;2023-03-19T17:49:25;7.75;;;2.20;;
50773;SDS011;36745;48.544;8.918;2023-03-19T17:52:47;6.90;;;2.42;;
50773;SDS011;36745;48.544;8.918;2023-03-19T17:56:08;5.00;;;2.95;;
50773;SDS011;36745;48.544;8.918;2023-03-19T17:59:33;3.30;;;2.53;;
50773;SDS011;36745;48.544;8.918;2023-03-19T18:02:53;3.97;;;2.45;;
50773;SDS011;36745;48.544;8.918;2023-03-19T18:06:15;3.08;;;2.70;;
50773;SDS011;36745;48.544;8.918;2023-03-19T18:09:36;2.35;;;1.30;;
50773;SDS011;36745;48.544;8.918;2023-03-19T18:12:56;2.72;;;2.53;;
50773;SDS011;36745;48.544;8.918;2023-03-19T18:16:25;3.85;;;1.60;;
50773;SDS011;36745;48.544;8.918;2023-03-19T18:19:47;3.08;;;1.80;;
50773;SDS011;36745;48.544;8.918;2023-03-19T18:23:10;3.13;;;1.77;;
50773;SDS011;36745;48.544;8.918;2023-03-19T18:26:31;1.27;;;1.17;;
50773;SDS011;36745;48.544;8.918;2023-03-19T18:29:51;1.95;;;0.80;;
50773;SDS011;36745;48.544;8.918;2023-03-19T18:33:23;2.15;;;1.10;;
50773;SDS011;36745;48.544;8.918;2023-03-19T18:36:46;1.50;;;0.90;;
50773;SDS011;36745;48.544;8.918;2023-03-19T18:40:09;1.45;;;1.00;;
50773;SDS011;36745;48.544;8.918;2023-03-19T18:43:34;2.08;;;1.40;;
50773;SDS011;36745;48.544;8.918;2023-03-19T18:46:54;1.25;;;0.95;;
50773;SDS011;36745;48.544;8.918;2023-03-19T18:50:14;1.65;;;1.30;;
50773;SDS011;36745;48.544;8.918;2023-03-19T18:53:36;1.10;;;1.00;;
50773;SDS011;36745;48.544;8.918;2023-03-19T18:56:56;3.67;;;2.17;;
50773;SDS011;36745;48.544;8.918;2023-03-19T19:00:20;3.70;;;1.10;;
50773;SDS011;36745;48.544;8.918;2023-03-19T19:03:42;1.10;;;1.00;;
50773;SDS011;36745;48.544;8.918;2023-03-19T19:07:03;1.33;;;1.10;;
50773;SDS011;36745;48.544;8.918;2023-03-19T19:10:24;1.85;;;1.00;;
50773;SDS011;36745;48.544;8.918;2023-03-19T19:17:16;1.23;;;1.13;;
50773;SDS011;36745;48.544;8.918;2023-03-19T19:20:37;2.17;;;1.30;;
50773;SDS011;36745;48.544;8.918;2023-03-19T19:23:57;6.55;;;1.27;;
50773;SDS011;36745;48.544;8.918;2023-03-19T19:27:21;10.95;;;1.40;;
50773;SDS011;36745;48.544;8.918;2023-03-19T19:30:44;5.18;;;0.82;;
50773;SDS011;36745;48.544;8.918;2023-03-19T19:34:04;4.75;;;1.40;;
50773;SDS011;36745;48.544;8.918;2023-03-19T19:37:24;2.60;;;1.38;;
50773;SDS011;36745;48.544;8.918;2023-03-19T19:40:46;4.40;;;1.80;;
50773;SDS011;36745;48.544;8.918;2023-03-19T19:44:14;1.85;;;1.27;;
50773;SDS011;36745;48.544;8.918;2023-03-19T19:47:37;2.00;;;1.55;;
50773;SDS011;36745;48.544;8.918;2023-03-19T19:50:57;4.75;;;1.48;;
50773;SDS011;36745;48.544;8.918;2023-03-19T19:54:17;6.22;;;1.63;;
50773;SDS011;36745;48.544;8.918;2023-03-19T19:57:38;1.90;;;1.70;;
50773;SDS011;36745;48.544;8.918;2023-03-19T20:01:01;2.08;;;1.98;;
50773;SDS011;36745;48.544;8.918;2023-03-19T20:04:21;7.10;;;2.55;;
50773;SDS011;36745;48.544;8.918;2023-03-19T20:07:41;10.75;;;6.07;;
50773;SDS011;36745;48.544;8.918;2023-03-19T20:11:02;5.57;;;2.40;;
50773;SDS011;36745;48.544;8.918;2023-03-19T20:14:29;5.05;;;3.05;;
50773;SDS011;36745;48.544;8.918;2023-03-19T20:17:49;2.17;;;1.70;;
50773;SDS011;36745;48.544;8.918;2023-03-19T20:21:10;8.85;;;6.55;;
50773;SDS011;36745;48.544;8.918;2023-03-19T20:24:31;5.75;;;2.17;;
50773;SDS011;36745;48.544;8.918;2023-03-19T20:27:52;5.47;;;2.95;;
50773;SDS011;36745;48.544;8.918;2023-03-19T20:31:26;3.55;;;2.00;;
50773;SDS011;36745;48.544;8.918;2023-03-19T20:34:48;6.22;;;3.53;;
50773;SDS011;36745;48.544;8.918;2023-03-19T20:38:11;4.18;;;2.40;;
50773;SDS011;36745;48.544;8.918;2023-03-19T20:41:32;6.72;;;2.80;;
50773;SDS011;36745;48.544;8.918;2023-03-19T20:44:53;4.05;;;2.90;;
50773;SDS011;36745;48.544;8.918;2023-03-19T20:48:16;6.07;;;2.65;;
50773;SDS011;36745;48.544;8.918;2023-03-19T20:51:36;8.48;;;3.50;;
50773;SDS011;36745;48.544;8.918;2023-03-19T20:54:56;6.60;;;3.60;;
50773;SDS011;36745;48.544;8.918;2023-03-19T20:58:23;7.45;;;3.97;;
50773;SDS011;36745;48.544;8.918;2023-03-19T21:01:46;5.70;;;3.20;;
50773;SDS011;36745;48.544;8.918;2023-03-19T21:05:10;5.40;;;3.60;;
50773;SDS011;36745;48.544;8.918;2023-03-19T21:08:32;5.93;;;3.65;;
50773;SDS011;36745;48.544;8.918;2023-03-19T21:11:55;4.22;;;3.42;;
50773;SDS011;36745;48.544;8.918;2023-03-19T21:15:15;5.63;;;3.10;;
50773;SDS011;36745;48.544;8.918;2023-03-19T21:18:34;4.60;;;3.38;;
50773;SDS011;36745;48.544;8.918;2023-03-19T21:21:55;5.35;;;2.25;;
50773;SDS011;36745;48.544;8.918;2023-03-19T21:25:19;7.63;;;3.65;;
50773;SDS011;36745;48.544;8.918;2023-03-19T21:28:42;4.43;;;3.22;;
50773;SDS011;36745;48.544;8.918;2023-03-19T21:32:07;7.40;;;3.58;;
50773;SDS011;36745;48.544;8.918;2023-03-19T21:35:29;4.05;;;2.85;;
50773;SDS011;36745;48.544;8.918;2023-03-19T21:38:49;3.75;;;2.22;;
50773;SDS011;36745;48.544;8.918;2023-03-19T21:42:14;2.65;;;2.15;;
50773;SDS011;36745;48.544;8.918;2023-03-19T21:45:40;8.70;;;2.63;;
50773;SDS011;36745;48.544;8.918;2023-03-19T21:49:00;4.75;;;3.65;;
50773;SDS011;36745;48.544;8.918;2023-03-19T21:52:20;12.13;;;4.43;;
50773;SDS011;36745;48.544;8.918;2023-03-19T21:55:40;9.30;;;4.15;;
50773;SDS011;36745;48.544;8.918;2023-03-19T21:59:05;5.78;;;3.78;;
50773;SDS011;36745;48.544;8.918;2023-03-19T22:02:36;6.63;;;3.80;;
50773;SDS011;36745;48.544;8.918;2023-03-19T22:05:58;7.28;;;4.60;;
50773;SDS011;36745;48.544;8.918;2023-03-19T22:09:18;6.50;;;4.82;;
50773;SDS011;36745;48.544;8.918;2023-03-19T22:12:38;6.18;;;4.32;;
50773;SDS011;36745;48.544;8.918;2023-03-19T22:15:59;8.38;;;5.00;;
50773;SDS011;36745;48.544;8.918;2023-03-19T22:19:19;8.30;;;4.70;;